Osseo, Minnesota
Current Conditions -  °F | °C
As of 9:53 AM on Wednesday 26 Nov 2014 (Local Time) from KMIC Reporting Station
Light Snow Light Snow  
Wind Chill: -9°   Ceiling: 1900
Heat Index: -4°   Visibility: 0.75mi
Dew Point: -7°   Wind: 9mph
Humidity: 81%   Direction: 10°N
Pressure: 30.16"   Gusts: NA
Location:  45.12°N, 93.4°W
Report Text: KMIC 261553Z 01008KT 3/4SM -SN FEW011 OVC019 M04/M07 A3016 RMK AO2 SLP227 P0000 T10391067
Loading
Personal Weather Stations






























Interactive Weather Map New forecast layout! Learn more

10-Day Weather Forecast

Advertisements
Track Severe Weather on mobile